sensor_id;sensor_type;location;lat;lon;timestamp;pressure;altitude;pressure_sealevel;temperature;humidity
48614;BME280;34408;51.426;5.444;2023-01-15T00:02:25;99878.94;;;10.12;69.97
48614;BME280;34408;51.426;5.444;2023-01-15T00:04:53;99875.44;;;10.11;70.02
48614;BME280;34408;51.426;5.444;2023-01-15T00:07:21;99871.13;;;10.10;69.85
48614;BME280;34408;51.426;5.444;2023-01-15T00:09:51;99875.69;;;10.10;69.63
48614;BME280;34408;51.426;5.444;2023-01-15T00:12:19;99867.06;;;10.08;69.69
48614;BME280;34408;51.426;5.444;2023-01-15T00:14:47;99871.59;;;10.07;69.68
48614;BME280;34408;51.426;5.444;2023-01-15T00:17:14;99872.66;;;10.06;69.53
48614;BME280;34408;51.426;5.444;2023-01-15T00:19:42;99864.84;;;10.05;69.25
48614;BME280;34408;51.426;5.444;2023-01-15T00:22:10;99872.09;;;10.04;69.41
48614;BME280;34408;51.426;5.444;2023-01-15T00:24:37;99873.16;;;10.03;69.51
48614;BME280;34408;51.426;5.444;2023-01-15T00:27:24;99851.91;;;10.02;68.92
48614;BME280;34408;51.426;5.444;2023-01-15T00:30:11;99859.97;;;10.02;68.97
48614;BME280;34408;51.426;5.444;2023-01-15T00:32:40;99859.88;;;9.97;68.72
48614;BME280;34408;51.426;5.444;2023-01-15T00:35:11;99856.72;;;10.00;69.04
48614;BME280;34408;51.426;5.444;2023-01-15T00:37:39;99851.59;;;9.98;68.81
48614;BME280;34408;51.426;5.444;2023-01-15T00:40:08;99840.28;;;9.96;68.89
48614;BME280;34408;51.426;5.444;2023-01-15T00:42:37;99857.44;;;9.95;69.18
48614;BME280;34408;51.426;5.444;2023-01-15T00:45:07;99874.34;;;9.96;68.80
48614;BME280;34408;51.426;5.444;2023-01-15T00:47:37;99867.59;;;9.93;68.55
48614;BME280;34408;51.426;5.444;2023-01-15T00:50:06;99868.41;;;9.94;68.99
48614;BME280;34408;51.426;5.444;2023-01-15T00:52:35;99883.69;;;9.93;68.99
48614;BME280;34408;51.426;5.444;2023-01-15T00:55:03;99885.81;;;9.91;68.38
48614;BME280;34408;51.426;5.444;2023-01-15T00:57:31;99889.56;;;9.90;68.66
48614;BME280;34408;51.426;5.444;2023-01-15T01:00:00;99885.47;;;9.88;69.05
48614;BME280;34408;51.426;5.444;2023-01-15T01:02:29;99887.91;;;9.89;68.24
48614;BME280;34408;51.426;5.444;2023-01-15T01:04:57;99890.84;;;9.88;68.53
48614;BME280;34408;51.426;5.444;2023-01-15T01:07:25;99890.03;;;9.87;68.57
48614;BME280;34408;51.426;5.444;2023-01-15T01:09:52;99885.72;;;9.86;68.68
48614;BME280;34408;51.426;5.444;2023-01-15T01:12:20;99891.66;;;9.88;68.88
48614;BME280;34408;51.426;5.444;2023-01-15T01:14:49;99895.41;;;9.87;68.76
48614;BME280;34408;51.426;5.444;2023-01-15T01:17:18;99891.09;;;9.86;68.81
48614;BME280;34408;51.426;5.444;2023-01-15T01:19:45;99890.50;;;9.84;68.24
48614;BME280;34408;51.426;5.444;2023-01-15T01:22:13;99887.00;;;9.84;68.44
48614;BME280;34408;51.426;5.444;2023-01-15T01:24:41;99880.03;;;9.83;68.85
48614;BME280;34408;51.426;5.444;2023-01-15T01:27:09;99892.84;;;9.81;68.14
48614;BME280;34408;51.426;5.444;2023-01-15T01:29:36;99876.75;;;9.81;68.47
48614;BME280;34408;51.426;5.444;2023-01-15T01:32:04;99873.25;;;9.80;68.34
48614;BME280;34408;51.426;5.444;2023-01-15T01:34:33;99884.25;;;9.78;68.15
48614;BME280;34408;51.426;5.444;2023-01-15T01:37:01;99886.91;;;9.78;67.70
48614;BME280;34408;51.426;5.444;2023-01-15T01:39:29;99883.41;;;9.78;67.63
48614;BME280;34408;51.426;5.444;2023-01-15T01:41:57;99885.53;;;9.76;67.76
48614;BME280;34408;51.426;5.444;2023-01-15T01:45:01;99896.25;;;9.76;68.52
48614;BME280;34408;51.426;5.444;2023-01-15T01:47:30;99906.19;;;9.75;68.00
48614;BME280;34408;51.426;5.444;2023-01-15T01:50:03;99891.28;;;9.68;68.12
48614;BME280;34408;51.426;5.444;2023-01-15T01:52:37;99891.94;;;9.75;67.52
48614;BME280;34408;51.426;5.444;2023-01-15T01:55:08;99876.91;;;9.74;67.79
48614;BME280;34408;51.426;5.444;2023-01-15T01:57:37;99883.09;;;9.74;67.87
48614;BME280;34408;51.426;5.444;2023-01-15T02:00:07;99888.22;;;9.76;68.30
48614;BME280;34408;51.426;5.444;2023-01-15T02:02:37;99889.28;;;9.75;68.01
48614;BME280;34408;51.426;5.444;2023-01-15T02:05:07;99883.09;;;9.74;67.21
48614;BME280;34408;51.426;5.444;2023-01-15T02:07:35;99881.47;;;9.73;68.09
48614;BME280;34408;51.426;5.444;2023-01-15T02:10:04;99891.38;;;9.73;67.90
48614;BME280;34408;51.426;5.444;2023-01-15T02:12:34;99894.88;;;9.73;67.67
48614;BME280;34408;51.426;5.444;2023-01-15T02:15:08;99896.97;;;9.71;67.71
48614;BME280;34408;51.426;5.444;2023-01-15T02:17:43;99902.59;;;9.70;67.51
48614;BME280;34408;51.426;5.444;2023-01-15T02:20:22;99907.94;;;9.70;67.38
48614;BME280;34408;51.426;5.444;2023-01-15T02:23:05;99898.03;;;9.70;67.60
48614;BME280;34408;51.426;5.444;2023-01-15T02:25:51;99901.53;;;9.71;67.38
48614;BME280;34408;51.426;5.444;2023-01-15T02:28:24;99894.78;;;9.68;67.48
48614;BME280;34408;51.426;5.444;2023-01-15T02:30:58;99891.03;;;9.69;67.94
48614;BME280;34408;51.426;5.444;2023-01-15T02:33:32;99888.59;;;9.68;67.75
48614;BME280;34408;51.426;5.444;2023-01-15T02:36:02;99886.97;;;9.67;68.15
48614;BME280;34408;51.426;5.444;2023-01-15T02:38:36;99878.09;;;9.66;68.10
48614;BME280;34408;51.426;5.444;2023-01-15T02:41:08;99877.53;;;9.64;67.48
48614;BME280;34408;51.426;5.444;2023-01-15T02:43:45;99880.44;;;9.63;67.56
48614;BME280;34408;51.426;5.444;2023-01-15T02:46:16;99873.47;;;9.62;67.92
48614;BME280;34408;51.426;5.444;2023-01-15T02:48:49;99860.28;;;9.60;67.20
48614;BME280;34408;51.426;5.444;2023-01-15T02:51:20;99860.28;;;9.60;67.58
48614;BME280;34408;51.426;5.444;2023-01-15T02:53:53;99864.03;;;9.59;67.21
48614;BME280;34408;51.426;5.444;2023-01-15T02:56:24;99873.13;;;9.58;67.19
48614;BME280;34408;51.426;5.444;2023-01-15T02:58:58;99866.13;;;9.57;67.07
48614;BME280;34408;51.426;5.444;2023-01-15T03:01:32;99861.00;;;9.56;66.97
48614;BME280;34408;51.426;5.444;2023-01-15T03:04:06;99863.69;;;9.56;67.07
48614;BME280;34408;51.426;5.444;2023-01-15T03:06:40;99862.06;;;9.55;66.74
48614;BME280;34408;51.426;5.444;2023-01-15T03:09:09;99870.09;;;9.55;67.60
48614;BME280;34408;51.426;5.444;2023-01-15T03:11:43;99859.38;;;9.55;67.53
48614;BME280;34408;51.426;5.444;2023-01-15T03:14:18;99863.91;;;9.54;67.46
48614;BME280;34408;51.426;5.444;2023-01-15T03:16:50;99864.97;;;9.53;66.47
48614;BME280;34408;51.426;5.444;2023-01-15T03:19:23;99866.28;;;9.51;66.66
48614;BME280;34408;51.426;5.444;2023-01-15T03:21:55;99864.63;;;9.50;65.87
48614;BME280;34408;51.426;5.444;2023-01-15T03:24:29;99854.97;;;9.49;66.59
48614;BME280;34408;51.426;5.444;2023-01-15T03:26:58;99866.75;;;9.48;66.08
48614;BME280;34408;51.426;5.444;2023-01-15T03:29:29;99859.75;;;9.46;66.34
48614;BME280;34408;51.426;5.444;2023-01-15T03:31:59;99857.06;;;9.46;66.73
48614;BME280;34408;51.426;5.444;2023-01-15T03:34:32;99852.75;;;9.45;66.78
48614;BME280;34408;51.426;5.444;2023-01-15T03:37:03;99857.31;;;9.45;66.70
48614;BME280;34408;51.426;5.444;2023-01-15T03:39:31;99855.69;;;9.44;66.01
48614;BME280;34408;51.426;5.444;2023-01-15T03:42:09;99855.69;;;9.44;66.73
48614;BME280;34408;51.426;5.444;2023-01-15T03:44:48;99857.78;;;9.42;66.59
48614;BME280;34408;51.426;5.444;2023-01-15T03:47:28;99870.13;;;9.43;66.54
48614;BME280;34408;51.426;5.444;2023-01-15T03:50:03;99863.63;;;9.39;66.17
48614;BME280;34408;51.426;5.444;2023-01-15T03:52:36;99859.06;;;9.39;66.05
48614;BME280;34408;51.426;5.444;2023-01-15T03:55:11;99863.63;;;9.39;66.26
48614;BME280;34408;51.426;5.444;2023-01-15T03:57:45;99871.66;;;9.39;66.45
48614;BME280;34408;51.426;5.444;2023-01-15T04:00:19;99861.75;;;9.39;66.08
48614;BME280;34408;51.426;5.444;2023-01-15T04:02:49;99865.50;;;9.38;66.69
48614;BME280;34408;51.426;5.444;2023-01-15T04:05:20;99868.16;;;9.38;66.25
48614;BME280;34408;51.426;5.444;2023-01-15T04:07:49;99855.81;;;9.37;66.91
48614;BME280;34408;51.426;5.444;2023-01-15T04:10:17;99864.91;;;9.36;66.53
48614;BME280;34408;51.426;5.444;2023-01-15T04:12:45;99861.41;;;9.36;66.30
48614;BME280;34408;51.426;5.444;2023-01-15T04:15:13;99862.22;;;9.36;66.79
48614;BME280;34408;51.426;5.444;2023-01-15T04:17:42;99876.69;;;9.35;66.43
48614;BME280;34408;51.426;5.444;2023-01-15T04:20:11;99867.59;;;9.36;66.81
48614;BME280;34408;51.426;5.444;2023-01-15T04:22:38;99865.72;;;9.37;66.33
48614;BME280;34408;51.426;5.444;2023-01-15T04:25:07;99855.25;;;9.35;66.56
48614;BME280;34408;51.426;5.444;2023-01-15T04:27:35;99855.25;;;9.35;66.25
48614;BME280;34408;51.426;5.444;2023-01-15T04:30:04;99848.00;;;9.36;66.34
48614;BME280;34408;51.426;5.444;2023-01-15T04:32:31;99863.28;;;9.35;66.42
48614;BME280;34408;51.426;5.444;2023-01-15T04:35:00;99853.84;;;9.33;66.07
48614;BME280;34408;51.426;5.444;2023-01-15T04:37:28;99861.06;;;9.32;66.23
48614;BME280;34408;51.426;5.444;2023-01-15T04:39:56;99858.63;;;9.31;65.79
48614;BME280;34408;51.426;5.444;2023-01-15T04:42:24;99861.31;;;9.31;66.32
48614;BME280;34408;51.426;5.444;2023-01-15T04:45:09;99873.91;;;9.30;65.83
48614;BME280;34408;51.426;5.444;2023-01-15T04:47:37;99881.38;;;9.28;65.36
48614;BME280;34408;51.426;5.444;2023-01-15T04:50:08;99876.81;;;9.29;66.14
48614;BME280;34408;51.426;5.444;2023-01-15T04:52:36;99878.47;;;9.30;66.30
48614;BME280;34408;51.426;5.444;2023-01-15T04:55:04;99882.75;;;9.31;66.17
48614;BME280;34408;51.426;5.444;2023-01-15T04:57:32;99884.50;;;9.37;66.31
48614;BME280;34408;51.426;5.444;2023-01-15T05:00:00;99883.09;;;9.34;66.63
48614;BME280;34408;51.426;5.444;2023-01-15T05:02:28;99893.03;;;9.34;65.88
48614;BME280;34408;51.426;5.444;2023-01-15T05:04:56;99868.06;;;9.33;66.58
48614;BME280;34408;51.426;5.444;2023-01-15T05:07:25;99874.47;;;9.32;66.91
48614;BME280;34408;51.426;5.444;2023-01-15T05:09:53;99878.47;;;9.30;66.33
48614;BME280;34408;51.426;5.444;2023-01-15T05:12:21;99863.19;;;9.30;66.84
48614;BME280;34408;51.426;5.444;2023-01-15T05:14:48;99881.38;;;9.28;66.63
48614;BME280;34408;51.426;5.444;2023-01-15T05:17:16;99876.25;;;9.27;66.37
48614;BME280;34408;51.426;5.444;2023-01-15T05:19:44;99881.03;;;9.25;66.34
48614;BME280;34408;51.426;5.444;2023-01-15T05:22:12;99863.06;;;9.25;66.67
48614;BME280;34408;51.426;5.444;2023-01-15T05:24:41;99863.91;;;9.26;66.05
48614;BME280;34408;51.426;5.444;2023-01-15T05:27:09;99853.66;;;9.23;65.95
48614;BME280;34408;51.426;5.444;2023-01-15T05:29:37;99865.41;;;9.22;66.01
48614;BME280;34408;51.426;5.444;2023-01-15T05:32:04;99872.66;;;9.21;66.33
48614;BME280;34408;51.426;5.444;2023-01-15T05:34:35;99860.28;;;9.20;66.00
48614;BME280;34408;51.426;5.444;2023-01-15T05:37:03;99864.84;;;9.20;66.05
48614;BME280;34408;51.426;5.444;2023-01-15T05:39:30;99866.94;;;9.18;66.34
48614;BME280;34408;51.426;5.444;2023-01-15T05:41:59;99863.44;;;9.17;65.71
48614;BME280;34408;51.426;5.444;2023-01-15T05:44:28;99869.84;;;9.16;65.76
48614;BME280;34408;51.426;5.444;2023-01-15T05:46:58;99860.75;;;9.17;65.91
48614;BME280;34408;51.426;5.444;2023-01-15T05:49:28;99860.19;;;9.15;66.46
48614;BME280;34408;51.426;5.444;2023-01-15T05:51:57;99861.81;;;9.16;66.07
48614;BME280;34408;51.426;5.444;2023-01-15T05:54:27;99864.25;;;9.18;66.63
48614;BME280;34408;51.426;5.444;2023-01-15T05:56:56;99867.19;;;9.16;66.80
48614;BME280;34408;51.426;5.444;2023-01-15T05:59:26;99866.59;;;9.14;66.66
48614;BME280;34408;51.426;5.444;2023-01-15T06:01:55;99857.63;;;9.20;66.27
48614;BME280;34408;51.426;5.444;2023-01-15T06:04:23;99848.47;;;9.33;66.19
48614;BME280;34408;51.426;5.444;2023-01-15T06:06:53;99855.53;;;9.51;65.98
48614;BME280;34408;51.426;5.444;2023-01-15T06:09:21;99859.31;;;9.66;65.07
48614;BME280;34408;51.426;5.444;2023-01-15T06:11:49;99870.34;;;9.82;64.55
48614;BME280;34408;51.426;5.444;2023-01-15T06:14:19;99865.97;;;9.92;63.96
48614;BME280;34408;51.426;5.444;2023-01-15T06:16:48;99878.13;;;10.11;63.68
48614;BME280;34408;51.426;5.444;2023-01-15T06:19:15;99879.25;;;10.16;62.82
48614;BME280;34408;51.426;5.444;2023-01-15T06:21:43;99898.06;;;10.16;62.64
48614;BME280;34408;51.426;5.444;2023-01-15T06:24:11;99891.63;;;10.17;62.80
48614;BME280;34408;51.426;5.444;2023-01-15T06:26:41;99891.31;;;10.13;63.22
48614;BME280;34408;51.426;5.444;2023-01-15T06:29:09;99885.19;;;10.01;62.76
48614;BME280;34408;51.426;5.444;2023-01-15T06:31:37;99888.16;;;9.88;63.28
48614;BME280;34408;51.426;5.444;2023-01-15T06:34:06;99887.16;;;9.77;63.79
48614;BME280;34408;51.426;5.444;2023-01-15T06:36:34;99887.78;;;9.67;63.56
48614;BME280;34408;51.426;5.444;2023-01-15T06:39:02;99902.97;;;9.62;64.34
48614;BME280;34408;51.426;5.444;2023-01-15T06:41:30;99884.31;;;9.55;64.13
48614;BME280;34408;51.426;5.444;2023-01-15T06:44:17;99896.00;;;9.49;64.56
48614;BME280;34408;51.426;5.444;2023-01-15T06:47:15;99902.31;;;9.43;64.01
48614;BME280;34408;51.426;5.444;2023-01-15T06:49:53;99888.56;;;9.39;64.59
48614;BME280;34408;51.426;5.444;2023-01-15T06:52:22;99896.28;;;9.36;64.70
48614;BME280;34408;51.426;5.444;2023-01-15T06:54:50;99898.38;;;9.34;65.27
48614;BME280;34408;51.426;5.444;2023-01-15T06:57:18;99885.22;;;9.32;65.17
48614;BME280;34408;51.426;5.444;2023-01-15T06:59:46;99884.06;;;9.28;64.07
48614;BME280;34408;51.426;5.444;2023-01-15T07:02:14;99880.78;;;9.26;64.28
48614;BME280;34408;51.426;5.444;2023-01-15T07:04:43;99886.63;;;9.23;64.71
48614;BME280;34408;51.426;5.444;2023-01-15T07:07:12;99902.94;;;9.22;64.94
48614;BME280;34408;51.426;5.444;2023-01-15T07:09:40;99909.38;;;9.21;64.91
48614;BME280;34408;51.426;5.444;2023-01-15T07:12:08;99904.25;;;9.19;65.19
48614;BME280;34408;51.426;5.444;2023-01-15T07:14:36;99904.47;;;9.18;64.90
48614;BME280;34408;51.426;5.444;2023-01-15T07:17:03;99906.09;;;9.19;65.40
48614;BME280;34408;51.426;5.444;2023-01-15T07:19:31;99899.81;;;9.25;65.99
48614;BME280;34408;51.426;5.444;2023-01-15T07:21:59;99903.66;;;9.17;64.98
48614;BME280;34408;51.426;5.444;2023-01-15T07:24:28;99915.66;;;9.14;65.30
48614;BME280;34408;51.426;5.444;2023-01-15T07:26:56;99930.13;;;9.13;65.37
48614;BME280;34408;51.426;5.444;2023-01-15T07:29:23;99928.72;;;9.11;65.41
48614;BME280;34408;51.426;5.444;2023-01-15T07:31:51;99931.41;;;9.11;65.42
48614;BME280;34408;51.426;5.444;2023-01-15T07:34:19;99928.13;;;9.21;64.58
48614;BME280;34408;51.426;5.444;2023-01-15T07:36:47;99941.16;;;9.40;64.37
48614;BME280;34408;51.426;5.444;2023-01-15T07:39:15;99943.19;;;9.62;63.78
48614;BME280;34408;51.426;5.444;2023-01-15T07:41:44;99929.28;;;9.76;62.93
48614;BME280;34408;51.426;5.444;2023-01-15T07:44:29;99934.13;;;9.91;61.47
48614;BME280;34408;51.426;5.444;2023-01-15T07:47:17;99945.47;;;10.10;61.72
48614;BME280;34408;51.426;5.444;2023-01-15T07:50:05;99945.53;;;10.27;60.60
48614;BME280;34408;51.426;5.444;2023-01-15T07:52:33;99948.16;;;10.38;60.10
48614;BME280;34408;51.426;5.444;2023-01-15T07:55:01;99960.75;;;10.55;59.37
48614;BME280;34408;51.426;5.444;2023-01-15T07:57:30;99958.91;;;10.72;59.33
48614;BME280;34408;51.426;5.444;2023-01-15T07:59:58;99955.81;;;10.80;58.84
48614;BME280;34408;51.426;5.444;2023-01-15T08:02:26;99963.63;;;10.82;58.61
48614;BME280;34408;51.426;5.444;2023-01-15T08:04:54;99951.97;;;10.76;58.17
48614;BME280;34408;51.426;5.444;2023-01-15T08:07:22;99974.78;;;10.57;58.10
48614;BME280;34408;51.426;5.444;2023-01-15T08:09:50;99969.66;;;10.38;59.00
48614;BME280;34408;51.426;5.444;2023-01-15T08:12:17;99970.06;;;10.19;59.77
48614;BME280;34408;51.426;5.444;2023-01-15T08:15:05;99960.56;;;9.99;59.66
48614;BME280;34408;51.426;5.444;2023-01-15T08:17:40;99968.09;;;9.86;60.20
48614;BME280;34408;51.426;5.444;2023-01-15T08:20:10;99961.94;;;9.73;60.14
48614;BME280;34408;51.426;5.444;2023-01-15T08:22:39;99968.25;;;9.67;60.91
48614;BME280;34408;51.426;5.444;2023-01-15T08:25:08;99960.13;;;9.62;61.53
48614;BME280;34408;51.426;5.444;2023-01-15T08:27:36;99976.69;;;9.59;61.86
48614;BME280;34408;51.426;5.444;2023-01-15T08:30:08;99983.34;;;9.57;61.80
48614;BME280;34408;51.426;5.444;2023-01-15T08:32:38;99966.31;;;9.51;61.63
48614;BME280;34408;51.426;5.444;2023-01-15T08:35:06;99946.19;;;9.37;61.91
48614;BME280;34408;51.426;5.444;2023-01-15T08:37:35;99965.75;;;9.49;63.07
48614;BME280;34408;51.426;5.444;2023-01-15T08:40:03;99960.28;;;9.44;62.67
48614;BME280;34408;51.426;5.444;2023-01-15T08:42:31;99959.94;;;9.40;62.89
48614;BME280;34408;51.426;5.444;2023-01-15T08:44:59;99954.44;;;9.35;63.15
48614;BME280;34408;51.426;5.444;2023-01-15T08:47:28;99959.47;;;9.32;63.10
48614;BME280;34408;51.426;5.444;2023-01-15T08:49:57;99971.47;;;9.29;63.47
48614;BME280;34408;51.426;5.444;2023-01-15T08:52:25;99961.69;;;9.35;63.17
48614;BME280;34408;51.426;5.444;2023-01-15T08:54:52;99949.78;;;9.42;63.50
48614;BME280;34408;51.426;5.444;2023-01-15T08:57:20;99951.16;;;9.45;64.13
48614;BME280;34408;51.426;5.444;2023-01-15T08:59:48;99952.47;;;9.31;62.59
48614;BME280;34408;51.426;5.444;2023-01-15T09:02:16;99945.13;;;9.38;64.95
48614;BME280;34408;51.426;5.444;2023-01-15T09:04:45;99946.19;;;9.25;63.28
48614;BME280;34408;51.426;5.444;2023-01-15T09:07:13;99949.81;;;9.19;63.17
48614;BME280;34408;51.426;5.444;2023-01-15T09:09:42;99938.97;;;9.14;63.20
48614;BME280;34408;51.426;5.444;2023-01-15T09:12:10;99942.59;;;9.20;63.39
48614;BME280;34408;51.426;5.444;2023-01-15T09:14:37;99940.84;;;9.13;63.51
48614;BME280;34408;51.426;5.444;2023-01-15T09:17:25;99934.19;;;9.16;63.53
48614;BME280;34408;51.426;5.444;2023-01-15T09:19:54;99948.31;;;9.11;63.51
48614;BME280;34408;51.426;5.444;2023-01-15T09:22:22;99944.81;;;9.11;63.43
48614;BME280;34408;51.426;5.444;2023-01-15T09:24:50;99932.69;;;9.08;63.10
48614;BME280;34408;51.426;5.444;2023-01-15T09:27:18;99941.53;;;9.09;64.20
48614;BME280;34408;51.426;5.444;2023-01-15T09:29:46;99936.41;;;9.07;63.94
48614;BME280;34408;51.426;5.444;2023-01-15T09:32:13;99939.34;;;9.06;63.57
48614;BME280;34408;51.426;5.444;2023-01-15T09:34:41;99927.56;;;9.07;63.58
48614;BME280;34408;51.426;5.444;2023-01-15T09:37:10;99929.75;;;9.22;63.41
48614;BME280;34408;51.426;5.444;2023-01-15T09:39:38;99942.22;;;9.28;63.07
48614;BME280;34408;51.426;5.444;2023-01-15T09:42:19;99944.78;;;9.23;63.13
48614;BME280;34408;51.426;5.444;2023-01-15T09:45:05;99932.56;;;9.27;63.21
48614;BME280;34408;51.426;5.444;2023-01-15T09:47:39;99950.75;;;9.25;62.68
48614;BME280;34408;51.426;5.444;2023-01-15T09:50:23;99951.56;;;9.25;63.37
48614;BME280;34408;51.426;5.444;2023-01-15T09:53:21;99943.88;;;9.17;63.00
48614;BME280;34408;51.426;5.444;2023-01-15T09:55:53;99953.97;;;9.38;63.82
48614;BME280;34408;51.426;5.444;2023-01-15T09:58:29;99960.41;;;9.37;62.09
48614;BME280;34408;51.426;5.444;2023-01-15T10:00:59;99976.50;;;9.26;61.42
48614;BME280;34408;51.426;5.444;2023-01-15T10:03:31;99993.63;;;9.36;62.44
48614;BME280;34408;51.426;5.444;2023-01-15T10:06:06;99975.69;;;9.25;60.88
48614;BME280;34408;51.426;5.444;2023-01-15T10:08:40;99982.78;;;9.20;61.38
48614;BME280;34408;51.426;5.444;2023-01-15T10:11:28;99978.47;;;9.19;62.43
48614;BME280;34408;51.426;5.444;2023-01-15T10:14:16;99987.47;;;9.24;62.25
48614;BME280;34408;51.426;5.444;2023-01-15T10:16:48;99990.13;;;9.24;61.27
48614;BME280;34408;51.426;5.444;2023-01-15T10:19:16;99969.03;;;9.39;62.21
48614;BME280;34408;51.426;5.444;2023-01-15T10:21:50;99982.53;;;9.44;61.69
48614;BME280;34408;51.426;5.444;2023-01-15T10:24:29;99977.75;;;9.46;62.04
48614;BME280;34408;51.426;5.444;2023-01-15T10:27:03;99986.59;;;9.59;63.05
48614;BME280;34408;51.426;5.444;2023-01-15T10:29:41;99996.63;;;9.52;62.45
48614;BME280;34408;51.426;5.444;2023-01-15T10:32:21;99991.72;;;9.60;62.46
48614;BME280;34408;51.426;5.444;2023-01-15T10:35:04;99999.44;;;9.45;61.43
48614;BME280;34408;51.426;5.444;2023-01-15T10:37:37;100000.72;;;9.42;61.52
48614;BME280;34408;51.426;5.444;2023-01-15T10:40:21;99979.63;;;9.34;60.96
48614;BME280;34408;51.426;5.444;2023-01-15T10:42:55;99987.44;;;9.36;61.57
48614;BME280;34408;51.426;5.444;2023-01-15T10:45:29;99984.41;;;9.44;62.72
48614;BME280;34408;51.426;5.444;2023-01-15T10:48:00;99975.88;;;9.47;60.45
48614;BME280;34408;51.426;5.444;2023-01-15T10:50:31;99973.44;;;9.45;61.16
48614;BME280;34408;51.426;5.444;2023-01-15T10:53:04;99968.63;;;9.59;60.43
48614;BME280;34408;51.426;5.444;2023-01-15T10:55:39;99979.16;;;9.49;60.08
48614;BME280;34408;51.426;5.444;2023-01-15T10:58:13;99980.09;;;9.43;61.59
48614;BME280;34408;51.426;5.444;2023-01-15T11:00:47;99969.94;;;9.45;60.83
48614;BME280;34408;51.426;5.444;2023-01-15T11:03:20;99979.16;;;9.49;61.52
48614;BME280;34408;51.426;5.444;2023-01-15T11:05:49;99976.38;;;9.44;59.63
48614;BME280;34408;51.426;5.444;2023-01-15T11:08:21;99969.84;;;9.40;60.85
48614;BME280;34408;51.426;5.444;2023-01-15T11:11:19;99974.84;;;9.48;60.58
48614;BME280;34408;51.426;5.444;2023-01-15T11:13:53;99973.41;;;9.57;61.38
48614;BME280;34408;51.426;5.444;2023-01-15T11:16:39;99967.84;;;9.47;59.97
48614;BME280;34408;51.426;5.444;2023-01-15T11:19:28;99992.34;;;9.39;59.48
48614;BME280;34408;51.426;5.444;2023-01-15T11:22:08;99980.44;;;9.35;60.55
48614;BME280;34408;51.426;5.444;2023-01-15T11:24:37;99993.84;;;9.35;60.88
48614;BME280;34408;51.426;5.444;2023-01-15T11:27:16;99983.69;;;9.49;60.89
48614;BME280;34408;51.426;5.444;2023-01-15T11:29:45;99999.00;;;9.36;60.32
48614;BME280;34408;51.426;5.444;2023-01-15T11:32:20;99985.34;;;9.50;60.36
48614;BME280;34408;51.426;5.444;2023-01-15T11:34:53;99975.88;;;9.47;61.70
48614;BME280;34408;51.426;5.444;2023-01-15T11:37:21;99974.38;;;9.39;61.14
48614;BME280;34408;51.426;5.444;2023-01-15T11:39:53;99981.38;;;9.40;62.52
48614;BME280;34408;51.426;5.444;2023-01-15T11:42:22;99984.28;;;9.51;63.96
48614;BME280;34408;51.426;5.444;2023-01-15T11:45:13;99979.38;;;9.59;64.16
48614;BME280;34408;51.426;5.444;2023-01-15T11:47:59;99979.50;;;9.53;61.95
48614;BME280;34408;51.426;5.444;2023-01-15T11:50:51;99990.00;;;9.54;62.06
48614;BME280;34408;51.426;5.444;2023-01-15T11:53:22;99992.41;;;9.67;61.39
48614;BME280;34408;51.426;5.444;2023-01-15T11:55:57;99986.03;;;9.45;60.73
48614;BME280;34408;51.426;5.444;2023-01-15T11:58:42;99991.75;;;9.49;61.01
48614;BME280;34408;51.426;5.444;2023-01-15T12:01:12;99986.97;;;9.39;61.29
48614;BME280;34408;51.426;5.444;2023-01-15T12:03:42;99997.34;;;9.35;59.85
48614;BME280;34408;51.426;5.444;2023-01-15T12:06:12;99987.56;;;9.29;60.46
48614;BME280;34408;51.426;5.444;2023-01-15T12:08:47;99985.13;;;9.28;60.44
48614;BME280;34408;51.426;5.444;2023-01-15T12:14:29;99979.63;;;9.34;60.52
48614;BME280;34408;51.426;5.444;2023-01-15T12:17:03;99971.47;;;9.41;61.16
48614;BME280;34408;51.426;5.444;2023-01-15T12:19:41;99981.72;;;9.44;61.10
48614;BME280;34408;51.426;5.444;2023-01-15T12:22:22;99974.25;;;9.46;61.27
48614;BME280;34408;51.426;5.444;2023-01-15T12:25:14;99966.44;;;9.56;60.55
48614;BME280;34408;51.426;5.444;2023-01-15T12:27:59;99975.78;;;9.94;61.57
48614;BME280;34408;51.426;5.444;2023-01-15T12:30:36;99970.59;;;10.04;58.59
48614;BME280;34408;51.426;5.444;2023-01-15T12:33:16;99973.13;;;10.22;57.66
48614;BME280;34408;51.426;5.444;2023-01-15T12:35:50;99973.44;;;10.26;57.19
48614;BME280;34408;51.426;5.444;2023-01-15T12:38:28;99965.06;;;10.22;58.14
48614;BME280;34408;51.426;5.444;2023-01-15T12:41:06;99974.28;;;10.15;58.09
48614;BME280;34408;51.426;5.444;2023-01-15T12:43:35;99971.66;;;10.03;58.22
48614;BME280;34408;51.426;5.444;2023-01-15T12:46:24;99964.59;;;10.14;59.85
48614;BME280;34408;51.426;5.444;2023-01-15T12:48:58;99966.53;;;10.01;59.32
48614;BME280;34408;51.426;5.444;2023-01-15T12:51:44;99970.06;;;9.90;59.54
48614;BME280;34408;51.426;5.444;2023-01-15T12:54:14;99974.53;;;9.85;59.66
48614;BME280;34408;51.426;5.444;2023-01-15T12:56:50;99959.84;;;9.75;59.94
48614;BME280;34408;51.426;5.444;2023-01-15T12:59:21;99952.41;;;9.66;58.89
48614;BME280;34408;51.426;5.444;2023-01-15T13:02:01;99955.31;;;9.64;59.48
48614;BME280;34408;51.426;5.444;2023-01-15T13:04:43;99954.41;;;9.59;59.66
48614;BME280;34408;51.426;5.444;2023-01-15T13:07:17;99954.06;;;9.55;59.84
48614;BME280;34408;51.426;5.444;2023-01-15T13:09:51;99961.06;;;9.56;60.13
48614;BME280;34408;51.426;5.444;2023-01-15T13:12:24;99962.13;;;9.55;60.94
48614;BME280;34408;51.426;5.444;2023-01-15T13:14:52;99939.84;;;9.55;59.87
48614;BME280;34408;51.426;5.444;2023-01-15T13:17:29;99952.16;;;9.67;60.55
48614;BME280;34408;51.426;5.444;2023-01-15T13:20:11;99958.84;;;9.53;59.93
48614;BME280;34408;51.426;5.444;2023-01-15T13:22:46;99959.44;;;9.55;60.59
48614;BME280;34408;51.426;5.444;2023-01-15T13:25:30;99952.53;;;9.59;59.90
48614;BME280;34408;51.426;5.444;2023-01-15T13:28:12;99976.22;;;9.51;59.31
48614;BME280;34408;51.426;5.444;2023-01-15T13:30:54;99981.72;;;9.44;60.21
48614;BME280;34408;51.426;5.444;2023-01-15T13:33:29;99960.50;;;9.42;60.71
48614;BME280;34408;51.426;5.444;2023-01-15T13:36:04;99964.25;;;9.41;60.62
48614;BME280;34408;51.426;5.444;2023-01-15T13:38:38;99962.13;;;9.43;61.09
48614;BME280;34408;51.426;5.444;2023-01-15T13:41:07;99965.53;;;9.39;60.36